Cape Lookout Natl Seashore, North Carolina
Current Conditions -  °F | °C
As of 11:58 AM on Thursday 18 Dec 2014 (Local Time) from KMRH Reporting Station
Clear Clear  
Wind Chill: 51°   Ceiling: Unl
Heat Index: 51°   Visibility: 10mi
Dew Point: 31°   Wind: 9mph
Humidity: 46%   Direction: 60°ENE
Pressure: 30.14"   Gusts: NA
Location:  34.88°N, 76.29°W
Report Text: KMRH 181658Z AUTO 06008KT 10SM CLR 11/M01 A3014 RMK AO2 SLP207 I1000 T01061006 TSNO
Loading
Personal Weather Stations






























Interactive Weather Map New forecast layout! Learn more

10-Day Weather Forecast

Advertisements
Track Severe Weather on mobile